createdAt,value
2017-11-08T00:01:23.704Z,36.20
2017-11-08T00:03:51.272Z,33.10
2017-11-08T00:06:18.779Z,35.37
2017-11-08T00:08:46.315Z,34.20
2017-11-08T00:11:13.826Z,32.13
2017-11-08T00:13:41.338Z,32.50
2017-11-08T00:16:08.820Z,33.47
2017-11-08T00:18:36.341Z,33.03
2017-11-08T00:21:03.967Z,33.63
2017-11-08T00:23:36.401Z,33.20
2017-11-08T00:26:03.888Z,31.17
2017-11-08T00:28:31.392Z,32.70
2017-11-08T00:30:58.909Z,37.17
2017-11-08T00:33:26.446Z,34.13
2017-11-08T00:35:53.960Z,32.30
2017-11-08T00:38:21.510Z,34.53
2017-11-08T00:40:49.019Z,33.07
2017-11-08T00:43:16.518Z,34.10
2017-11-08T00:45:44.011Z,34.43
2017-11-08T00:48:11.528Z,33.43
2017-11-08T00:50:39.010Z,33.73
2017-11-08T00:53:10.447Z,32.83
2017-11-08T00:55:37.961Z,33.97
2017-11-08T00:58:05.448Z,32.53
2017-11-08T01:00:34.822Z,33.80
2017-11-08T01:03:02.363Z,30.47
2017-11-08T01:05:29.861Z,32.33
2017-11-08T01:07:57.345Z,31.73
2017-11-08T01:10:24.883Z,31.03
2017-11-08T01:12:52.375Z,33.43
2017-11-08T01:15:19.880Z,31.43
2017-11-08T01:17:47.412Z,29.73
2017-11-08T01:20:14.907Z,30.00
2017-11-08T01:22:42.424Z,30.40
2017-11-08T01:25:09.921Z,31.00
2017-11-08T01:27:37.413Z,33.47
2017-11-08T01:30:04.917Z,32.63
2017-11-08T01:32:32.441Z,30.30
2017-11-08T01:34:59.934Z,30.80
2017-11-08T01:37:33.118Z,33.77
2017-11-08T01:40:00.620Z,32.20
2017-11-08T01:42:28.887Z,33.20
2017-11-08T01:44:56.408Z,32.90
2017-11-08T01:47:23.886Z,28.37
2017-11-08T01:49:54.168Z,30.87
2017-11-08T01:52:21.792Z,30.73
2017-11-08T01:54:49.286Z,30.33
2017-11-08T01:57:16.834Z,31.07
2017-11-08T01:59:44.382Z,29.30
2017-11-08T02:02:11.887Z,30.80
2017-11-08T02:04:39.373Z,27.57
2017-11-08T02:07:06.878Z,30.00
2017-11-08T02:09:34.401Z,30.17
2017-11-08T02:12:01.891Z,32.50
2017-11-08T02:14:29.402Z,27.73
2017-11-08T02:16:56.911Z,29.30
2017-11-08T02:19:24.426Z,28.77
2017-11-08T02:21:53.100Z,28.73
2017-11-08T02:24:20.626Z,29.10
2017-11-08T02:29:44.556Z,27.20
2017-11-08T02:32:14.886Z,28.77
2017-11-08T02:34:42.405Z,27.73
2017-11-08T02:37:09.918Z,25.47
2017-11-08T02:39:37.425Z,30.33
2017-11-08T02:42:05.785Z,27.60
2017-11-08T02:44:33.274Z,26.13
2017-11-08T02:47:00.785Z,27.40
2017-11-08T02:49:28.304Z,28.00
2017-11-08T02:51:55.802Z,27.20
2017-11-08T02:54:24.697Z,28.90
2017-11-08T02:56:52.196Z,27.33
2017-11-08T02:59:19.703Z,27.87
2017-11-08T03:01:47.209Z,28.20
2017-11-08T03:04:14.702Z,26.47
2017-11-08T03:06:42.189Z,25.67
2017-11-08T03:09:09.710Z,26.67
2017-11-08T03:11:37.221Z,27.60
2017-11-08T03:14:04.718Z,26.90
2017-11-08T03:16:32.190Z,25.40
2017-11-08T03:18:59.666Z,25.87
2017-11-08T03:21:27.131Z,26.70
2017-11-08T03:23:54.609Z,27.90
2017-11-08T03:26:22.095Z,27.30
2017-11-08T03:28:49.563Z,27.27
2017-11-08T03:31:17.083Z,27.13
2017-11-08T03:33:44.553Z,27.20
2017-11-08T03:36:12.028Z,27.80
2017-11-08T03:38:39.524Z,25.23
2017-11-08T03:41:06.988Z,27.37
2017-11-08T03:43:34.443Z,26.63
2017-11-08T03:46:01.972Z,27.30
2017-11-08T03:48:29.430Z,29.30
2017-11-08T03:50:56.926Z,28.13
2017-11-08T03:53:24.418Z,26.80
2017-11-08T03:55:51.895Z,26.33
2017-11-08T03:58:19.370Z,24.80
2017-11-08T04:00:46.880Z,26.23
2017-11-08T04:03:14.430Z,26.33
2017-11-08T04:05:41.893Z,25.10
2017-11-08T04:08:09.449Z,25.03
2017-11-08T04:10:36.900Z,26.50
2017-11-08T04:13:04.368Z,27.73
2017-11-08T04:15:31.837Z,25.37
2017-11-08T04:17:59.329Z,27.27
2017-11-08T04:20:26.793Z,26.33
2017-11-08T04:22:54.345Z,27.67
2017-11-08T04:25:21.826Z,25.40
2017-11-08T04:27:49.319Z,24.33
2017-11-08T04:30:16.840Z,25.43
2017-11-08T04:32:44.315Z,25.87
2017-11-08T04:35:11.847Z,24.73
2017-11-08T04:37:39.325Z,26.50
2017-11-08T04:40:06.784Z,24.70
2017-11-08T04:42:34.242Z,24.37
2017-11-08T04:45:01.733Z,24.93
2017-11-08T04:47:29.199Z,24.23
2017-11-08T04:49:56.663Z,25.50
2017-11-08T04:52:24.161Z,23.20
2017-11-08T04:54:51.681Z,23.80
2017-11-08T04:57:19.248Z,24.70
2017-11-08T04:59:52.617Z,23.37
2017-11-08T05:02:20.144Z,24.60
2017-11-08T05:04:47.620Z,22.97
2017-11-08T05:07:15.109Z,22.50
2017-11-08T05:09:42.566Z,26.23
2017-11-08T05:12:10.047Z,25.30
2017-11-08T05:14:37.532Z,22.23
2017-11-08T05:17:05.001Z,24.50
2017-11-08T05:19:32.514Z,23.67
2017-11-08T05:22:00.005Z,23.77
2017-11-08T05:24:27.476Z,25.00
2017-11-08T05:26:54.966Z,23.70
2017-11-08T05:29:22.441Z,24.23
2017-11-08T05:31:49.949Z,23.20
2017-11-08T05:34:17.415Z,23.33
2017-11-08T05:36:44.923Z,23.57
2017-11-08T05:39:12.399Z,24.47
2017-11-08T05:41:39.861Z,24.40
2017-11-08T05:44:07.381Z,22.60
2017-11-08T05:46:34.875Z,22.50
2017-11-08T05:49:02.346Z,25.67
2017-11-08T05:51:29.826Z,23.20
2017-11-08T05:53:57.453Z,22.67
2017-11-08T05:56:24.953Z,22.70
2017-11-08T05:58:52.610Z,24.10
2017-11-08T06:01:20.074Z,22.90
2017-11-08T06:03:47.540Z,22.87
2017-11-08T06:06:15.125Z,24.20
2017-11-08T06:08:42.602Z,23.90
2017-11-08T06:11:10.071Z,24.80
2017-11-08T06:13:37.557Z,24.20
2017-11-08T06:16:05.024Z,24.23
2017-11-08T06:18:32.497Z,23.90
2017-11-08T06:21:00.015Z,24.00
2017-11-08T06:23:27.518Z,26.53
2017-11-08T06:25:54.990Z,26.73
2017-11-08T06:28:22.468Z,25.70
2017-11-08T06:30:49.932Z,24.57
2017-11-08T06:33:17.403Z,25.00
2017-11-08T06:35:44.888Z,25.60
2017-11-08T06:38:12.367Z,26.90
2017-11-08T06:40:39.848Z,27.57
2017-11-08T06:43:07.359Z,28.37
2017-11-08T06:45:34.844Z,28.40
2017-11-08T06:48:02.316Z,27.67
2017-11-08T06:50:32.290Z,25.10
2017-11-08T06:53:01.716Z,28.90
2017-11-08T06:55:30.001Z,26.97
2017-11-08T06:57:57.500Z,26.93
2017-11-08T07:00:24.983Z,27.87
2017-11-08T07:02:52.459Z,26.73
2017-11-08T07:05:19.943Z,26.77
2017-11-08T07:07:47.449Z,25.23
2017-11-08T07:10:14.904Z,28.83
2017-11-08T07:12:42.405Z,28.10
2017-11-08T07:15:09.888Z,26.23
2017-11-08T07:17:37.345Z,25.87
2017-11-08T07:20:04.846Z,26.87
2017-11-08T07:22:32.329Z,27.47
2017-11-08T07:24:59.802Z,26.53
2017-11-08T07:27:27.302Z,25.07
2017-11-08T07:29:54.787Z,26.47
2017-11-08T07:32:22.251Z,27.07
2017-11-08T07:34:49.743Z,28.97
2017-11-08T07:37:17.210Z,27.63
2017-11-08T07:39:44.687Z,28.80
2017-11-08T07:42:12.170Z,28.70
2017-11-08T07:44:39.724Z,28.60
2017-11-08T07:47:07.214Z,28.07
2017-11-08T07:49:34.728Z,27.13
2017-11-08T07:52:07.517Z,27.73
2017-11-08T07:54:35.084Z,26.60
2017-11-08T07:57:02.595Z,29.73
2017-11-08T07:59:35.646Z,27.13
2017-11-08T08:02:03.114Z,24.93
2017-11-08T08:04:30.601Z,27.30
2017-11-08T08:06:58.169Z,24.47
2017-11-08T08:09:25.678Z,26.00
2017-11-08T08:11:53.160Z,26.60
2017-11-08T08:14:20.644Z,25.23
2017-11-08T08:16:48.125Z,27.70
2017-11-08T08:19:30.078Z,27.40
2017-11-08T08:21:57.560Z,27.80
2017-11-08T08:24:25.050Z,27.27
2017-11-08T08:26:52.602Z,26.30
2017-11-08T08:29:22.032Z,26.70
2017-11-08T08:31:49.534Z,26.60
2017-11-08T08:34:17.043Z,27.83
2017-11-08T08:36:44.529Z,26.87
2017-11-08T08:39:12.010Z,27.33
2017-11-08T08:41:39.497Z,26.90
2017-11-08T08:44:06.974Z,29.03
2017-11-08T08:46:34.449Z,29.00
2017-11-08T08:49:01.939Z,28.73
2017-11-08T08:51:29.459Z,29.97
2017-11-08T08:53:56.945Z,28.70
2017-11-08T08:56:24.427Z,30.30
2017-11-08T08:58:51.890Z,34.50
2017-11-08T09:01:19.381Z,35.97
2017-11-08T09:03:46.889Z,33.80
2017-11-08T09:06:14.357Z,31.30
2017-11-08T09:08:41.848Z,31.37
2017-11-08T09:13:59.639Z,31.47
2017-11-08T09:16:27.182Z,33.57
2017-11-08T09:18:54.703Z,35.57
2017-11-08T09:21:22.279Z,30.00
2017-11-08T09:23:49.814Z,33.57
2017-11-08T09:26:17.357Z,31.40
2017-11-08T09:28:44.886Z,33.90
2017-11-08T09:31:17.883Z,29.57
2017-11-08T09:33:45.405Z,30.20
2017-11-08T09:36:14.850Z,30.73
2017-11-08T09:38:42.371Z,33.37
2017-11-08T09:41:09.959Z,31.10
2017-11-08T09:43:37.487Z,29.83
2017-11-08T09:46:05.011Z,30.47
2017-11-08T09:48:33.235Z,29.53
2017-11-08T09:51:00.738Z,30.27
2017-11-08T09:53:28.267Z,30.80
2017-11-08T09:55:58.284Z,29.97
2017-11-08T09:58:25.830Z,28.57
2017-11-08T10:00:57.189Z,30.47
2017-11-08T10:05:58.457Z,30.17
2017-11-08T10:08:26.025Z,30.43
2017-11-08T10:10:59.099Z,30.10
2017-11-08T10:13:27.515Z,27.67
2017-11-08T10:15:55.042Z,29.77
2017-11-08T10:18:22.576Z,31.60
2017-11-08T10:20:50.081Z,29.70
2017-11-08T10:23:20.527Z,29.77
2017-11-08T10:25:48.144Z,31.20
2017-11-08T10:28:15.651Z,30.80
2017-11-08T10:30:43.162Z,28.77
2017-11-08T10:33:10.693Z,30.90
2017-11-08T10:35:38.181Z,33.80
2017-11-08T10:38:08.378Z,28.30
2017-11-08T10:40:35.929Z,29.53
2017-11-08T10:43:03.441Z,32.33
2017-11-08T10:45:30.908Z,28.83
2017-11-08T10:47:58.387Z,30.00
2017-11-08T10:50:25.886Z,31.27
2017-11-08T10:55:51.725Z,30.40
2017-11-08T10:58:20.236Z,32.23
2017-11-08T11:00:50.203Z,29.00
2017-11-08T11:03:17.681Z,30.70
2017-11-08T11:05:45.238Z,29.20
2017-11-08T11:08:14.131Z,30.90
2017-11-08T11:10:41.705Z,28.87
2017-11-08T11:13:09.258Z,29.30
2017-11-08T11:15:36.753Z,27.33
2017-11-08T11:18:04.241Z,27.27
2017-11-08T11:20:31.749Z,25.63
2017-11-08T11:22:59.221Z,28.10
2017-11-08T11:25:26.706Z,26.33
2017-11-08T11:27:54.190Z,27.70
2017-11-08T11:30:26.512Z,29.67
2017-11-08T11:32:54.013Z,27.27
2017-11-08T11:35:21.529Z,29.10
2017-11-08T11:37:49.026Z,27.10
2017-11-08T11:40:16.515Z,28.77
2017-11-08T11:42:44.081Z,30.47
2017-11-08T11:45:11.556Z,29.20
2017-11-08T11:47:39.091Z,31.17
2017-11-08T11:50:06.610Z,30.60
2017-11-08T11:52:34.108Z,28.97
2017-11-08T11:55:01.594Z,28.53
2017-11-08T11:57:29.094Z,29.50
2017-11-08T11:59:56.581Z,28.70
2017-11-08T12:02:24.103Z,25.83
2017-11-08T12:04:51.648Z,26.30
2017-11-08T12:07:19.152Z,26.97
2017-11-08T12:09:46.622Z,28.00
2017-11-08T12:12:14.152Z,25.27
2017-11-08T12:14:41.668Z,27.53
2017-11-08T12:17:09.145Z,29.60
2017-11-08T12:19:38.481Z,28.20
2017-11-08T12:22:05.972Z,28.90
2017-11-08T12:24:33.489Z,27.77
2017-11-08T12:27:05.772Z,28.00
2017-11-08T12:29:33.356Z,28.97
2017-11-08T12:32:00.897Z,30.10
2017-11-08T12:34:28.388Z,27.57
2017-11-08T12:36:55.935Z,28.93
2017-11-08T12:39:23.406Z,29.63
2017-11-08T12:41:50.916Z,28.30
2017-11-08T12:44:24.014Z,31.40
2017-11-08T12:46:51.521Z,30.10
2017-11-08T12:49:18.988Z,29.90
2017-11-08T12:51:46.462Z,29.90
2017-11-08T12:54:13.971Z,32.70
2017-11-08T12:56:41.450Z,34.70
2017-11-08T12:59:08.943Z,31.00
2017-11-08T13:01:36.481Z,31.70
2017-11-08T13:04:06.668Z,30.77
2017-11-08T13:06:36.902Z,30.23
2017-11-08T13:09:04.427Z,32.23
2017-11-08T13:11:35.855Z,33.73
2017-11-08T13:14:03.384Z,31.40
2017-11-08T13:16:30.904Z,29.13
2017-11-08T13:18:58.411Z,30.87
2017-11-08T13:21:25.963Z,30.50
2017-11-08T13:23:53.445Z,33.30
2017-11-08T13:26:20.936Z,32.13
2017-11-08T13:28:48.468Z,34.07
2017-11-08T13:31:15.961Z,31.20
2017-11-08T13:33:43.476Z,31.87
2017-11-08T13:36:10.964Z,31.60
2017-11-08T13:38:38.475Z,31.50
2017-11-08T13:41:05.967Z,34.10
2017-11-08T13:43:33.524Z,33.93
2017-11-08T13:46:01.026Z,32.60
2017-11-08T13:48:28.512Z,32.87
2017-11-08T13:50:56.499Z,31.83
2017-11-08T13:53:23.990Z,32.60
2017-11-08T13:55:51.499Z,30.90
2017-11-08T13:58:19.090Z,33.60
2017-11-08T14:00:46.596Z,35.00
2017-11-08T14:03:14.268Z,33.07
2017-11-08T14:05:41.781Z,32.70
2017-11-08T14:08:09.252Z,36.00
2017-11-08T14:10:36.734Z,36.30
2017-11-08T14:13:04.227Z,34.57
2017-11-08T14:15:31.692Z,34.80
2017-11-08T14:17:59.173Z,35.37
2017-11-08T14:20:26.657Z,35.17
2017-11-08T14:22:54.187Z,34.50
2017-11-08T14:25:21.678Z,34.00
2017-11-08T14:27:49.168Z,36.60
2017-11-08T14:30:16.688Z,35.00
2017-11-08T14:32:44.155Z,33.80
2017-11-08T14:35:11.732Z,31.30
2017-11-08T14:37:39.983Z,34.13
2017-11-08T14:40:07.466Z,32.97
2017-11-08T14:42:39.533Z,31.93
2017-11-08T14:45:07.017Z,31.97
2017-11-08T14:47:34.531Z,31.63
2017-11-08T14:50:02.027Z,30.40
2017-11-08T14:52:29.504Z,33.87
2017-11-08T14:54:57.003Z,34.23
2017-11-08T14:57:24.525Z,33.67
2017-11-08T14:59:52.020Z,34.13
2017-11-08T15:02:19.492Z,36.40
2017-11-08T15:04:46.979Z,34.43
2017-11-08T15:07:14.485Z,33.67
2017-11-08T15:09:42.007Z,31.93
2017-11-08T15:12:10.292Z,36.63
2017-11-08T15:14:42.629Z,34.27
2017-11-08T15:17:10.139Z,32.67
2017-11-08T15:19:43.158Z,38.00
2017-11-08T15:22:10.656Z,35.30
2017-11-08T15:24:38.135Z,36.70
2017-11-08T15:27:05.583Z,34.47
2017-11-08T15:29:33.052Z,36.40
2017-11-08T15:32:00.546Z,36.37
2017-11-08T15:34:33.448Z,36.53
2017-11-08T15:37:00.931Z,38.63
2017-11-08T15:39:28.414Z,38.07
2017-11-08T15:41:55.918Z,41.17
2017-11-08T15:44:23.476Z,38.57
2017-11-08T15:46:54.856Z,40.50
2017-11-08T15:49:22.374Z,38.83
2017-11-08T15:51:49.852Z,37.13
2017-11-08T15:54:17.318Z,33.40
2017-11-08T15:56:44.787Z,32.60
2017-11-08T15:59:12.246Z,32.60
2017-11-08T16:01:41.654Z,37.33
2017-11-08T16:04:12.050Z,32.93
2017-11-08T16:06:39.565Z,35.20
2017-11-08T16:09:10.773Z,34.07
2017-11-08T16:11:38.254Z,33.47
2017-11-08T16:14:05.748Z,31.97
2017-11-08T16:16:33.233Z,32.30
2017-11-08T16:19:02.677Z,32.20
2017-11-08T16:21:38.709Z,34.50
2017-11-08T16:24:06.211Z,36.23
2017-11-08T16:26:33.675Z,34.83
2017-11-08T16:29:01.152Z,33.73
2017-11-08T16:31:28.675Z,36.03
2017-11-08T16:33:56.149Z,36.53
2017-11-08T16:36:23.629Z,35.17
2017-11-08T16:38:51.133Z,38.90
2017-11-08T16:41:18.604Z,36.47
2017-11-08T16:43:46.083Z,37.73
2017-11-08T16:46:13.605Z,38.10
2017-11-08T16:48:41.082Z,43.30
2017-11-08T16:51:08.582Z,37.97
2017-11-08T16:53:36.081Z,34.90
2017-11-08T16:56:03.571Z,37.10
2017-11-08T16:58:31.056Z,36.17
2017-11-08T17:00:58.575Z,40.80
2017-11-08T17:03:26.068Z,37.37
2017-11-08T17:05:53.581Z,37.90
2017-11-08T17:08:21.253Z,38.93
2017-11-08T17:10:48.729Z,35.40
2017-11-08T17:13:16.194Z,36.83
2017-11-08T17:15:43.670Z,35.67
2017-11-08T17:18:11.173Z,38.53
2017-11-08T17:20:38.762Z,37.53
2017-11-08T17:23:06.262Z,36.37
2017-11-08T17:25:33.726Z,37.23
2017-11-08T17:28:01.191Z,39.50
2017-11-08T17:30:28.677Z,38.50
2017-11-08T17:32:56.143Z,42.83
2017-11-08T17:35:23.865Z,40.30
2017-11-08T17:37:51.367Z,43.50
2017-11-08T17:40:18.856Z,41.97
2017-11-08T17:42:46.356Z,38.73
2017-11-08T17:45:13.850Z,36.27
2017-11-08T17:47:41.326Z,37.40
2017-11-08T17:50:08.800Z,40.07
2017-11-08T17:52:36.952Z,40.47
2017-11-08T17:55:04.439Z,38.53
2017-11-08T17:57:32.029Z,41.43
2017-11-08T17:59:59.698Z,39.20
2017-11-08T18:02:28.328Z,40.67
2017-11-08T18:04:55.913Z,41.17
2017-11-08T18:07:27.871Z,35.77
2017-11-08T18:09:56.302Z,38.40
2017-11-08T18:12:23.851Z,37.13
2017-11-08T18:14:51.482Z,40.80
2017-11-08T18:17:19.007Z,39.40
2017-11-08T18:19:46.539Z,42.00
2017-11-08T18:22:14.040Z,36.63
2017-11-08T18:24:41.913Z,40.33
2017-11-08T18:27:09.392Z,40.03
2017-11-08T18:29:36.902Z,43.27
2017-11-08T18:32:04.431Z,41.40
2017-11-08T18:34:32.018Z,42.33
2017-11-08T18:36:59.503Z,44.27
2017-11-08T18:39:29.275Z,41.57
2017-11-08T18:41:56.785Z,40.57
2017-11-08T18:44:26.101Z,43.53
2017-11-08T18:46:53.682Z,43.90
2017-11-08T18:49:21.191Z,45.20
2017-11-08T18:51:48.694Z,46.60
2017-11-08T18:54:16.181Z,43.60
2017-11-08T18:56:43.719Z,43.70
2017-11-08T18:59:11.281Z,43.07
2017-11-08T19:01:38.786Z,42.67
2017-11-08T19:04:06.273Z,46.53
2017-11-08T19:06:33.770Z,47.87
2017-11-08T19:09:01.244Z,47.87
2017-11-08T19:11:28.757Z,46.10
2017-11-08T19:13:56.284Z,45.87
2017-11-08T19:16:23.796Z,47.63
2017-11-08T19:18:51.280Z,48.23
2017-11-08T19:21:18.865Z,51.00
2017-11-08T19:23:46.359Z,50.43
2017-11-08T19:26:13.843Z,47.90
2017-11-08T19:28:41.538Z,47.93
2017-11-08T19:31:09.139Z,51.07
2017-11-08T19:33:36.615Z,49.63
2017-11-08T19:36:04.169Z,51.73
2017-11-08T19:38:31.659Z,50.97
2017-11-08T19:41:00.416Z,53.47
2017-11-08T19:43:27.964Z,61.63
2017-11-08T19:45:55.477Z,55.10
2017-11-08T19:48:22.952Z,49.33
2017-11-08T19:50:50.445Z,55.77
2017-11-08T19:53:17.942Z,51.90
2017-11-08T19:55:45.431Z,55.30
2017-11-08T19:58:12.994Z,52.23
2017-11-08T20:00:40.805Z,48.80
2017-11-08T20:03:08.335Z,51.80
2017-11-08T20:05:35.876Z,49.83
2017-11-08T20:08:03.398Z,50.93
2017-11-08T20:10:30.918Z,57.43
2017-11-08T20:12:58.501Z,59.37
2017-11-08T20:15:27.751Z,58.30
2017-11-08T20:17:55.239Z,55.07
2017-11-08T20:20:22.786Z,54.27
2017-11-08T20:22:51.125Z,54.13
2017-11-08T20:25:18.801Z,49.43
2017-11-08T20:27:46.383Z,49.57
2017-11-08T20:30:13.868Z,46.90
2017-11-08T20:32:41.751Z,50.77
2017-11-08T20:35:09.325Z,46.63
2017-11-08T20:37:36.860Z,49.27
2017-11-08T20:40:04.325Z,48.30
2017-11-08T20:42:31.806Z,49.10
2017-11-08T20:44:59.278Z,47.43
2017-11-08T20:47:26.745Z,50.23
2017-11-08T20:49:54.233Z,47.33
2017-11-08T20:52:21.778Z,45.87
2017-11-08T20:54:49.234Z,50.37
2017-11-08T20:57:16.734Z,46.70
2017-11-08T20:59:44.281Z,48.77
2017-11-08T21:02:11.750Z,50.50
2017-11-08T21:04:39.261Z,48.97
2017-11-08T21:07:06.770Z,51.40
2017-11-08T21:09:34.256Z,51.10
2017-11-08T21:12:01.868Z,52.27
2017-11-08T21:14:29.360Z,50.50
2017-11-08T21:16:59.800Z,48.43
2017-11-08T21:19:27.411Z,49.67
2017-11-08T21:21:54.903Z,48.17
2017-11-08T21:24:22.548Z,46.17
2017-11-08T21:26:50.084Z,49.43
2017-11-08T21:29:17.605Z,50.50
2017-11-08T21:31:45.136Z,49.57
2017-11-08T21:34:12.608Z,51.07
2017-11-08T21:36:41.007Z,47.13
2017-11-08T21:39:08.516Z,48.83
2017-11-08T21:41:36.105Z,47.90
2017-11-08T21:44:03.570Z,47.67
2017-11-08T21:46:32.826Z,44.60
2017-11-08T21:49:00.304Z,53.03
2017-11-08T21:51:30.271Z,50.53
2017-11-08T21:53:58.633Z,52.00
2017-11-08T21:56:27.414Z,49.37
2017-11-08T21:58:56.880Z,49.57
2017-11-08T22:01:24.383Z,49.40
2017-11-08T22:03:51.859Z,49.70
2017-11-08T22:06:19.324Z,50.10
2017-11-08T22:08:46.813Z,53.50
2017-11-08T22:11:14.330Z,56.10
2017-11-08T22:13:45.795Z,56.13
2017-11-08T22:16:13.300Z,53.30
2017-11-08T22:18:40.807Z,63.67
2017-11-08T22:21:08.299Z,53.37
2017-11-08T22:23:35.842Z,52.97
2017-11-08T22:26:04.080Z,55.40
2017-11-08T22:28:35.873Z,45.93
2017-11-08T22:31:03.970Z,37.43
2017-11-08T22:33:31.433Z,36.27
2017-11-08T22:35:58.951Z,34.43
2017-11-08T22:38:27.594Z,36.40
2017-11-08T22:40:57.956Z,35.57
2017-11-08T22:43:25.979Z,35.67
2017-11-08T22:45:53.478Z,33.77
2017-11-08T22:48:20.946Z,31.67
2017-11-08T22:50:48.430Z,32.90
2017-11-08T22:53:15.903Z,32.03
2017-11-08T22:55:43.374Z,32.70
2017-11-08T22:58:10.838Z,32.60
2017-11-08T23:00:41.231Z,32.43
2017-11-08T23:03:08.690Z,33.37
2017-11-08T23:05:36.160Z,33.33
2017-11-08T23:08:03.675Z,34.07
2017-11-08T23:10:31.155Z,34.80
2017-11-08T23:12:58.653Z,33.77
2017-11-08T23:15:26.142Z,35.07
2017-11-08T23:17:53.598Z,36.00
2017-11-08T23:20:21.807Z,36.60
2017-11-08T23:22:50.696Z,36.80
2017-11-08T23:25:18.929Z,34.00
2017-11-08T23:27:48.543Z,33.57
2017-11-08T23:30:17.258Z,34.10
2017-11-08T23:32:48.151Z,36.37
2017-11-08T23:35:18.287Z,35.50
2017-11-08T23:37:49.354Z,34.70
2017-11-08T23:40:17.003Z,35.87
2017-11-08T23:42:45.578Z,31.03
2017-11-08T23:45:13.051Z,34.63
2017-11-08T23:47:40.603Z,31.40
2017-11-08T23:50:08.090Z,30.43
2017-11-08T23:52:35.567Z,31.60
2017-11-08T23:55:03.033Z,30.87
2017-11-08T23:57:30.525Z,29.63
